createdAt,value
2016-01-19T00:00:03.990Z,18.35
2016-01-19T00:01:04.056Z,18.47
2016-01-19T00:02:04.105Z,18.35
2016-01-19T00:03:04.154Z,18.44
2016-01-19T00:04:04.220Z,18.4
2016-01-19T00:05:04.284Z,18.4
2016-01-19T00:06:04.320Z,18.41
2016-01-19T00:07:04.384Z,18.29
2016-01-19T00:08:04.433Z,18.4
2016-01-19T00:09:04.499Z,18.34
2016-01-19T00:10:04.548Z,18.31
2016-01-19T00:11:04.614Z,18.31
2016-01-19T00:12:04.664Z,18.37
2016-01-19T00:13:04.714Z,18.31
2016-01-19T00:14:04.779Z,18.33
2016-01-19T00:15:04.829Z,18.35
2016-01-19T00:16:04.879Z,18.34
2016-01-19T00:17:04.943Z,18.23
2016-01-19T00:18:04.993Z,18.26
2016-01-19T00:19:05.059Z,18.29
2016-01-19T00:20:05.093Z,18.35
2016-01-19T00:21:05.158Z,18.2
2016-01-19T00:22:05.223Z,18.25
2016-01-19T00:23:05.303Z,18.26
2016-01-19T00:24:05.337Z,18.25
2016-01-19T00:25:05.387Z,18.33
2016-01-19T00:26:05.452Z,18.28
2016-01-19T00:27:05.502Z,18.25
2016-01-19T00:28:05.567Z,18.31
2016-01-19T00:29:05.601Z,18.25
2016-01-19T00:30:05.650Z,18.29
2016-01-19T00:31:05.731Z,18.26
2016-01-19T00:32:05.765Z,18.22
2016-01-19T00:33:05.830Z,18.23
2016-01-19T00:34:05.927Z,18.22
2016-01-19T00:35:05.930Z,18.22
2016-01-19T00:36:05.995Z,18.2
2016-01-19T00:37:06.060Z,18.23
2016-01-19T00:38:06.094Z,18.23
2016-01-19T00:39:06.159Z,18.2
2016-01-19T00:40:06.209Z,18.15
2016-01-19T00:41:06.291Z,18.25
2016-01-19T00:42:06.340Z,18.16
2016-01-19T00:43:06.390Z,18.07
2016-01-19T00:44:06.456Z,18.18
2016-01-19T00:45:06.488Z,18.15
2016-01-19T00:46:06.538Z,18.07
2016-01-19T00:47:06.635Z,18.15
2016-01-19T00:48:06.653Z,18.22
2016-01-19T00:49:06.733Z,18.11
2016-01-19T00:50:06.768Z,18.15
2016-01-19T00:51:06.833Z,18.04
2016-01-19T00:52:06.882Z,18.19
2016-01-19T00:53:06.979Z,18.16
2016-01-19T00:54:06.997Z,18.1
2016-01-19T00:55:07.047Z,18.15
2016-01-19T00:56:07.128Z,18.15
2016-01-19T00:57:07.177Z,18.13
2016-01-19T00:58:07.227Z,18.13
2016-01-19T00:59:07.276Z,18.1
2016-01-19T01:00:07.326Z,18.03
2016-01-19T01:01:07.391Z,18.1
2016-01-19T01:02:07.425Z,18.13
2016-01-19T01:03:07.490Z,18.1
2016-01-19T01:04:07.540Z,18.08
2016-01-19T01:05:07.606Z,18.08
2016-01-19T01:06:07.672Z,18.1
2016-01-19T01:07:07.720Z,18.07
2016-01-19T01:08:07.770Z,18.05
2016-01-19T01:09:07.820Z,18.07
2016-01-19T01:10:07.885Z,18.05
2016-01-19T01:11:07.951Z,18.08
2016-01-19T01:12:07.985Z,18.08
2016-01-19T01:13:08.049Z,18.1
2016-01-19T01:14:08.098Z,18.04
2016-01-19T01:15:08.148Z,18.03
2016-01-19T01:16:08.214Z,18.04
2016-01-19T01:17:08.279Z,18.04
2016-01-19T01:18:08.329Z,18.04
2016-01-19T01:19:08.378Z,18.04
2016-01-19T01:20:08.443Z,17.94
2016-01-19T01:21:08.478Z,18
2016-01-19T01:22:08.527Z,18.03
2016-01-19T01:23:08.592Z,18.03
2016-01-19T01:24:08.641Z,17.97
2016-01-19T01:25:08.707Z,17.97
2016-01-19T01:26:09.069Z,17.98
2016-01-19T01:27:08.837Z,18.03
2016-01-19T01:28:08.902Z,17.98
2016-01-19T01:29:08.922Z,18.01
2016-01-19T01:30:08.986Z,18.01
2016-01-19T01:31:09.051Z,18.03
2016-01-19T01:32:09.101Z,17.94
2016-01-19T01:33:09.150Z,17.89
2016-01-19T01:34:09.200Z,17.9
2016-01-19T01:35:09.250Z,17.87
2016-01-19T01:36:09.331Z,17.95
2016-01-19T01:37:09.364Z,17.92
2016-01-19T01:38:09.429Z,17.9
2016-01-19T01:39:09.495Z,17.85
2016-01-19T01:40:09.544Z,17.85
2016-01-19T01:41:09.594Z,17.87
2016-01-19T01:42:09.846Z,17.85
2016-01-19T01:43:09.693Z,17.86
2016-01-19T01:44:09.774Z,17.85
2016-01-19T01:45:09.840Z,17.85
2016-01-19T01:46:09.874Z,17.87
2016-01-19T01:47:09.922Z,17.85
2016-01-19T01:48:10.004Z,17.87
2016-01-19T01:49:10.443Z,17.86
2016-01-19T01:50:10.087Z,17.85
2016-01-19T01:51:10.151Z,17.85
2016-01-19T01:52:10.202Z,17.86
2016-01-19T01:53:10.251Z,17.82
2016-01-19T01:54:10.317Z,17.92
2016-01-19T01:55:10.382Z,17.83
2016-01-19T01:56:10.431Z,17.79
2016-01-19T01:57:10.497Z,17.79
2016-01-19T01:58:10.514Z,17.82
2016-01-19T01:59:10.595Z,17.82
2016-01-19T02:00:10.630Z,17.79
2016-01-19T02:01:10.710Z,17.76
2016-01-19T02:02:10.744Z,17.72
2016-01-19T02:03:10.801Z,17.8
2016-01-19T02:04:10.851Z,17.76
2016-01-19T02:05:10.946Z,17.79
2016-01-19T02:06:10.965Z,17.78
2016-01-19T02:07:11.014Z,17.8
2016-01-19T02:08:11.079Z,17.8
2016-01-19T02:09:11.129Z,17.79
2016-01-19T02:10:11.179Z,17.83
2016-01-19T02:11:11.229Z,17.8
2016-01-19T02:12:11.309Z,17.76
2016-01-19T02:13:11.351Z,17.82
2016-01-19T02:14:11.446Z,17.76
2016-01-19T02:15:11.451Z,17.82
2016-01-19T02:16:11.727Z,17.79
2016-01-19T02:17:11.802Z,17.78
2016-01-19T02:18:11.647Z,17.79
2016-01-19T02:19:11.670Z,17.82
2016-01-19T02:20:11.720Z,17.8
2016-01-19T02:21:11.785Z,17.72
2016-01-19T02:22:11.835Z,17.76
2016-01-19T02:23:11.744Z,17.79
2016-01-19T02:24:11.810Z,17.71
2016-01-19T02:25:11.999Z,17.67
2016-01-19T02:26:12.068Z,17.65
2016-01-19T02:27:12.118Z,17.57
2016-01-19T02:28:12.182Z,17.65
2016-01-19T02:29:12.076Z,17.63
2016-01-19T02:30:12.266Z,17.63
2016-01-19T02:31:12.191Z,17.65
2016-01-19T02:32:12.396Z,17.68
2016-01-19T02:33:12.446Z,17.67
2016-01-19T02:34:12.511Z,17.63
2016-01-19T02:35:12.546Z,17.67
2016-01-19T02:36:12.595Z,17.65
2016-01-19T02:37:12.675Z,17.68
2016-01-19T02:38:12.709Z,17.65
2016-01-19T02:39:12.775Z,17.63
2016-01-19T02:40:12.840Z,17.65
2016-01-19T02:41:12.889Z,17.57
2016-01-19T02:42:12.924Z,17.64
2016-01-19T02:43:12.989Z,17.64
2016-01-19T02:44:13.054Z,17.59
2016-01-19T02:45:13.088Z,17.64
2016-01-19T02:46:13.152Z,17.57
2016-01-19T02:47:13.203Z,17.59
2016-01-19T02:48:13.283Z,17.57
2016-01-19T02:49:13.833Z,17.56
2016-01-19T02:50:13.241Z,17.59
2016-01-19T02:51:13.448Z,17.57
2016-01-19T02:52:13.482Z,17.45
2016-01-19T02:53:13.547Z,17.56
2016-01-19T02:54:13.597Z,17.51
2016-01-19T02:55:13.659Z,17.56
2016-01-19T02:56:13.679Z,17.49
2016-01-19T02:57:13.713Z,17.48
2016-01-19T02:58:13.762Z,17.63
2016-01-19T02:59:13.813Z,17.42
2016-01-19T03:00:13.833Z,17.52
2016-01-19T03:01:13.908Z,17.51
2016-01-19T03:02:13.936Z,17.51
2016-01-19T03:03:13.829Z,17.54
2016-01-19T03:04:14.048Z,17.49
2016-01-19T03:05:14.093Z,17.48
2016-01-19T03:06:14.141Z,17.45
2016-01-19T03:07:14.188Z,17.44
2016-01-19T03:08:14.236Z,17.46
2016-01-19T03:09:14.315Z,17.46
2016-01-19T03:10:14.347Z,17.46
2016-01-19T03:11:14.412Z,17.49
2016-01-19T03:12:14.461Z,17.45
2016-01-19T03:13:14.525Z,17.44
2016-01-19T03:14:14.558Z,17.44
2016-01-19T03:15:14.638Z,17.49
2016-01-19T03:16:14.688Z,17.49
2016-01-19T03:17:14.737Z,17.48
2016-01-19T03:18:14.803Z,17.42
2016-01-19T03:19:14.836Z,17.48
2016-01-19T03:20:14.918Z,17.44
2016-01-19T03:21:14.951Z,17.49
2016-01-19T03:22:15.001Z,17.38
2016-01-19T03:23:15.066Z,17.45
2016-01-19T03:24:15.131Z,17.45
2016-01-19T03:25:15.181Z,17.46
2016-01-19T03:26:15.231Z,17.48
2016-01-19T03:27:15.280Z,17.44
2016-01-19T03:28:15.345Z,17.48
2016-01-19T03:29:15.395Z,17.45
2016-01-19T03:30:15.460Z,17.42
2016-01-19T03:31:15.494Z,17.41
2016-01-19T03:32:15.559Z,17.41
2016-01-19T03:33:15.655Z,17.46
2016-01-19T03:34:15.674Z,17.39
2016-01-19T03:35:15.708Z,17.39
2016-01-19T03:36:15.774Z,17.38
2016-01-19T03:37:15.822Z,17.46
2016-01-19T03:38:15.872Z,17.39
2016-01-19T03:39:15.952Z,17.31
2016-01-19T03:40:15.988Z,17.39
2016-01-19T03:41:16.052Z,17.34
2016-01-19T03:42:16.101Z,17.41
2016-01-19T03:43:16.168Z,17.38
2016-01-19T03:44:16.200Z,17.38
2016-01-19T03:45:16.266Z,17.39
2016-01-19T03:46:16.316Z,17.33
2016-01-19T03:47:16.365Z,17.31
2016-01-19T03:48:16.430Z,17.39
2016-01-19T03:49:16.479Z,17.39
2016-01-19T03:50:16.529Z,17.39
2016-01-19T03:51:17.001Z,17.38
2016-01-19T03:52:16.659Z,17.34
2016-01-19T03:53:16.709Z,17.42
2016-01-19T03:54:16.759Z,17.33
2016-01-19T03:55:16.825Z,17.33
2016-01-19T03:56:16.873Z,17.34
2016-01-19T03:57:16.923Z,17.34
2016-01-19T03:58:16.972Z,17.34
2016-01-19T03:59:17.039Z,17.33
2016-01-19T04:00:17.088Z,17.27
2016-01-19T04:01:17.153Z,17.31
2016-01-19T04:02:17.186Z,17.27
2016-01-19T04:03:17.252Z,17.27
2016-01-19T04:04:17.286Z,17.26
2016-01-19T04:05:17.351Z,17.22
2016-01-19T04:06:17.417Z,17.31
2016-01-19T04:07:17.450Z,17.26
2016-01-19T04:08:17.516Z,17.24
2016-01-19T04:09:17.565Z,17.29
2016-01-19T04:10:17.661Z,17.27
2016-01-19T04:11:17.696Z,17.26
2016-01-19T04:12:17.745Z,17.24
2016-01-19T04:13:17.794Z,17.3
2016-01-19T04:14:17.860Z,17.23
2016-01-19T04:15:17.893Z,17.24
2016-01-19T04:16:17.959Z,17.27
2016-01-19T04:17:18.009Z,17.22
2016-01-19T04:18:18.090Z,17.2
2016-01-19T04:19:18.124Z,17.15
2016-01-19T04:20:18.156Z,17.24
2016-01-19T04:21:18.237Z,17.2
2016-01-19T04:22:18.272Z,17.16
2016-01-19T04:23:18.337Z,17.26
2016-01-19T04:24:18.417Z,17.15
2016-01-19T04:25:18.436Z,17.11
2016-01-19T04:26:18.501Z,17.15
2016-01-19T04:27:18.551Z,17.26
2016-01-19T04:28:18.616Z,17.2
2016-01-19T04:29:18.681Z,17.22
2016-01-19T04:30:18.700Z,17.2
2016-01-19T04:31:18.764Z,17.16
2016-01-19T04:32:18.830Z,17.16
2016-01-19T04:33:18.864Z,17.19
2016-01-19T04:34:18.961Z,17.16
2016-01-19T04:35:18.995Z,17.19
2016-01-19T04:36:19.044Z,17.2
2016-01-19T04:37:19.094Z,17.19
2016-01-19T04:38:19.158Z,17.14
2016-01-19T04:39:19.208Z,17.15
2016-01-19T04:40:19.258Z,17.19
2016-01-19T04:41:19.308Z,17.22
2016-01-19T04:42:19.372Z,17.2
2016-01-19T04:43:19.421Z,17.2
2016-01-19T04:44:19.472Z,17.19
2016-01-19T04:45:19.552Z,17.12
2016-01-19T04:46:19.587Z,17.12
2016-01-19T04:47:19.635Z,17.08
2016-01-19T04:48:19.702Z,17.11
2016-01-19T04:49:19.751Z,17.12
2016-01-19T04:50:19.801Z,17.11
2016-01-19T04:51:19.865Z,17.14
2016-01-19T04:52:19.915Z,17.12
2016-01-19T04:53:19.981Z,17.12
2016-01-19T04:54:20.029Z,17.09
2016-01-19T04:55:20.079Z,17.11
2016-01-19T04:56:20.128Z,17.14
2016-01-19T04:57:20.179Z,17.08
2016-01-19T04:58:20.244Z,17.08
2016-01-19T04:59:20.293Z,17.08
2016-01-19T05:00:20.359Z,17.08
2016-01-19T05:01:20.392Z,17.09
2016-01-19T05:02:20.458Z,17.09
2016-01-19T05:03:20.508Z,17.05
2016-01-19T05:04:20.556Z,17.09
2016-01-19T05:05:20.606Z,17.04
2016-01-19T05:06:20.672Z,17.04
2016-01-19T05:07:20.721Z,16.97
2016-01-19T05:08:20.786Z,17.01
2016-01-19T05:09:20.836Z,17.01
2016-01-19T05:10:20.901Z,16.94
2016-01-19T05:11:20.919Z,16.99
2016-01-19T05:12:20.999Z,16.99
2016-01-19T05:13:21.049Z,16.99
2016-01-19T05:14:21.099Z,17.06
2016-01-19T05:15:21.165Z,16.96
2016-01-19T05:16:21.213Z,17.06
2016-01-19T05:17:21.576Z,17.02
2016-01-19T05:18:21.326Z,16.96
2016-01-19T05:19:21.391Z,16.96
2016-01-19T05:20:21.441Z,16.87
2016-01-19T05:21:21.491Z,16.96
2016-01-19T05:22:21.524Z,16.94
2016-01-19T05:23:21.590Z,16.99
2016-01-19T05:24:21.654Z,16.9
2016-01-19T05:25:21.705Z,16.97
2016-01-19T05:26:21.753Z,16.94
2016-01-19T05:27:21.820Z,16.97
2016-01-19T05:28:21.854Z,17.02
2016-01-19T05:29:21.918Z,16.94
2016-01-19T05:30:21.984Z,16.94
2016-01-19T05:31:22.017Z,16.87
2016-01-19T05:32:22.067Z,16.9
2016-01-19T05:33:22.116Z,16.87
2016-01-19T05:34:22.198Z,16.94
2016-01-19T05:35:22.247Z,16.94
2016-01-19T05:36:22.312Z,16.87
2016-01-19T05:37:22.362Z,16.94
2016-01-19T05:38:22.396Z,16.93
2016-01-19T05:39:22.445Z,16.87
2016-01-19T05:40:22.542Z,16.89
2016-01-19T05:41:22.575Z,16.9
2016-01-19T05:42:22.610Z,16.84
2016-01-19T05:43:22.675Z,16.89
2016-01-19T05:44:22.725Z,16.84
2016-01-19T05:45:22.789Z,16.86
2016-01-19T05:46:22.839Z,16.9
2016-01-19T05:47:22.889Z,16.9
2016-01-19T05:48:22.985Z,16.87
2016-01-19T05:49:22.987Z,16.87
2016-01-19T05:50:23.053Z,16.84
2016-01-19T05:51:23.135Z,16.81
2016-01-19T05:52:23.152Z,16.84
2016-01-19T05:53:23.202Z,16.84
2016-01-19T05:54:23.548Z,16.75
2016-01-19T05:55:23.316Z,16.78
2016-01-19T05:56:23.398Z,16.81
2016-01-19T05:57:23.415Z,16.78
2016-01-19T05:58:23.857Z,16.79
2016-01-19T05:59:25.859Z,16.86
2016-01-19T06:00:24.018Z,16.75
2016-01-19T06:01:24.832Z,16.84
2016-01-19T06:02:25.492Z,16.76
2016-01-19T06:03:25.198Z,16.75
2016-01-19T06:04:26.466Z,16.79
2016-01-19T06:05:25.390Z,16.74
2016-01-19T06:06:24.128Z,16.81
2016-01-19T06:07:23.973Z,16.75
2016-01-19T06:08:24.023Z,16.75
2016-01-19T06:09:24.073Z,16.79
2016-01-19T06:10:24.123Z,16.72
2016-01-19T06:11:24.391Z,16.74
2016-01-19T06:12:24.269Z,16.72
2016-01-19T06:13:24.287Z,16.69
2016-01-19T06:14:24.337Z,16.71
2016-01-19T06:15:24.449Z,16.74
2016-01-19T06:16:25.905Z,16.69
2016-01-19T06:17:25.907Z,16.76
2016-01-19T06:18:26.347Z,16.65
2016-01-19T06:19:24.616Z,16.72
2016-01-19T06:20:24.681Z,16.71
2016-01-19T06:21:24.716Z,16.69
2016-01-19T06:22:24.780Z,16.66
2016-01-19T06:23:26.986Z,16.6
2016-01-19T06:24:25.394Z,16.54
2016-01-19T06:25:26.538Z,16.56
2016-01-19T06:26:26.260Z,16.54
2016-01-19T06:27:25.840Z,16.61
2016-01-19T06:28:26.437Z,16.6
2016-01-19T06:29:27.112Z,16.58
2016-01-19T06:30:25.911Z,16.53
2016-01-19T06:31:26.164Z,16.61
2016-01-19T06:32:27.932Z,16.56
2016-01-19T06:33:26.576Z,16.51
2016-01-19T06:34:25.438Z,16.57
2016-01-19T06:35:25.487Z,16.51
2016-01-19T06:36:25.536Z,16.57
2016-01-19T06:37:25.586Z,16.51
2016-01-19T06:38:25.651Z,16.47
2016-01-19T06:39:25.701Z,16.41
2016-01-19T06:40:25.766Z,16.51
2016-01-19T06:41:25.800Z,16.53
2016-01-19T06:42:25.881Z,16.54
2016-01-19T06:43:25.931Z,16.58
2016-01-19T06:44:25.964Z,16.56
2016-01-19T06:45:26.013Z,16.56
2016-01-19T06:46:26.078Z,16.56
2016-01-19T06:47:26.128Z,16.56
2016-01-19T06:48:26.178Z,16.47
2016-01-19T06:49:26.244Z,16.56
2016-01-19T06:50:26.293Z,16.65
2016-01-19T06:51:26.342Z,16.64
2016-01-19T06:52:26.408Z,16.56
2016-01-19T06:53:26.458Z,16.56
2016-01-19T06:54:26.507Z,16.64
2016-01-19T06:55:26.571Z,16.57
2016-01-19T06:56:26.605Z,16.56
2016-01-19T06:57:26.671Z,16.5
2016-01-19T06:58:26.721Z,16.56
2016-01-19T06:59:26.785Z,16.47
2016-01-19T07:00:26.821Z,16.47
2016-01-19T07:01:26.885Z,16.51
2016-01-19T07:02:26.965Z,16.47
2016-01-19T07:03:27.000Z,16.43
2016-01-19T07:04:27.049Z,16.49
2016-01-19T07:05:27.115Z,16.46
2016-01-19T07:06:27.148Z,16.5
2016-01-19T07:07:27.198Z,16.46
2016-01-19T07:08:27.263Z,16.43
2016-01-19T07:09:27.329Z,16.51
2016-01-19T07:10:27.363Z,16.47
2016-01-19T07:11:27.428Z,16.43
2016-01-19T07:12:27.477Z,16.39
2016-01-19T07:13:27.542Z,16.42
2016-01-19T07:14:27.592Z,16.43
2016-01-19T07:15:27.641Z,16.5
2016-01-19T07:16:27.706Z,16.46
2016-01-19T07:17:27.741Z,16.38
2016-01-19T07:18:27.806Z,16.41
2016-01-19T07:19:27.855Z,16.47
2016-01-19T07:20:27.920Z,16.5
2016-01-19T07:21:27.954Z,16.38
2016-01-19T07:22:28.019Z,16.42
2016-01-19T07:23:28.069Z,16.36
2016-01-19T07:24:28.119Z,16.46
2016-01-19T07:25:28.168Z,16.41
2016-01-19T07:26:28.233Z,16.49
2016-01-19T07:27:28.283Z,16.35
2016-01-19T07:28:28.364Z,16.23
2016-01-19T07:29:28.398Z,16.17
2016-01-19T07:30:28.463Z,16.1
2016-01-19T07:31:28.496Z,15.86
2016-01-19T07:32:28.593Z,15.82
2016-01-19T07:33:28.612Z,15.67
2016-01-19T07:34:28.662Z,15.64
2016-01-19T07:35:28.711Z,15.55
2016-01-19T07:36:28.776Z,15.49
2016-01-19T07:37:28.841Z,15.54
2016-01-19T07:38:28.876Z,15.55
2016-01-19T07:39:28.925Z,15.51
2016-01-19T07:40:29.131Z,15.65
2016-01-19T07:41:29.258Z,15.68
2016-01-19T07:42:29.261Z,15.64
2016-01-19T07:43:29.139Z,15.73
2016-01-19T07:44:29.189Z,15.68
2016-01-19T07:45:29.270Z,15.68
2016-01-19T07:46:29.303Z,15.8
2016-01-19T07:47:29.368Z,15.84
2016-01-19T07:48:29.417Z,15.83
2016-01-19T07:49:29.467Z,15.86
2016-01-19T07:50:29.516Z,15.9
2016-01-19T07:51:29.597Z,15.82
2016-01-19T07:52:29.631Z,15.92
2016-01-19T07:53:29.853Z,15.95
2016-01-19T07:54:29.730Z,15.95
2016-01-19T07:55:29.780Z,16.01
2016-01-19T07:56:30.048Z,15.92
2016-01-19T07:57:29.895Z,16.01
2016-01-19T07:58:29.960Z,15.92
2016-01-19T07:59:29.994Z,16.02
2016-01-19T08:00:30.059Z,16.02
2016-01-19T08:01:30.109Z,16.04
2016-01-19T08:02:30.158Z,16.05
2016-01-19T08:03:30.224Z,16.01
2016-01-19T08:04:30.148Z,16.02
2016-01-19T08:05:30.323Z,15.97
2016-01-19T08:06:30.372Z,15.98
2016-01-19T08:07:30.421Z,16.02
2016-01-19T08:08:30.503Z,16.1
2016-01-19T08:09:30.537Z,16.09
2016-01-19T08:10:30.586Z,16.1
2016-01-19T08:11:30.682Z,16.08
2016-01-19T08:12:30.701Z,16.1
2016-01-19T08:13:30.937Z,16.1
2016-01-19T08:14:30.926Z,16.12
2016-01-19T08:15:30.897Z,16.12
2016-01-19T08:16:30.977Z,16.13
2016-01-19T08:17:30.980Z,16.09
2016-01-19T08:18:31.061Z,16.09
2016-01-19T08:19:31.079Z,16.16
2016-01-19T08:20:31.129Z,16.16
2016-01-19T08:21:31.209Z,16.12
2016-01-19T08:22:31.244Z,16.13
2016-01-19T08:23:31.293Z,16.15
2016-01-19T08:24:31.797Z,16.09
2016-01-19T08:25:31.392Z,16.1
2016-01-19T08:26:31.457Z,16.09
2016-01-19T08:27:31.507Z,16.15
2016-01-19T08:28:31.994Z,16.17
2016-01-19T08:29:31.606Z,16.08
2016-01-19T08:30:31.655Z,16.1
2016-01-19T08:31:31.736Z,16.15
2016-01-19T08:32:31.786Z,16.05
2016-01-19T08:33:32.179Z,16.1
2016-01-19T08:34:31.885Z,16.08
2016-01-19T08:35:31.934Z,16.1
2016-01-19T08:36:31.984Z,16.1
2016-01-19T08:37:32.049Z,16.1
2016-01-19T08:38:32.115Z,16.09
2016-01-19T08:39:32.149Z,16.09
2016-01-19T08:40:32.198Z,16.13
2016-01-19T08:41:32.263Z,16.13
2016-01-19T08:42:32.844Z,16.09
2016-01-19T08:43:32.362Z,16.12
2016-01-19T08:44:32.412Z,16.17
2016-01-19T08:45:33.134Z,16.12
2016-01-19T08:46:32.605Z,16.16
2016-01-19T08:47:32.608Z,16.13
2016-01-19T08:48:32.626Z,16.15
2016-01-19T08:49:32.785Z,16.17
2016-01-19T08:50:32.975Z,16.2
2016-01-19T08:51:33.025Z,16.21
2016-01-19T08:52:33.464Z,16.09
2016-01-19T08:53:32.983Z,16.13
2016-01-19T08:54:33.064Z,16.16
2016-01-19T08:55:33.176Z,16.13
2016-01-19T08:56:33.054Z,16.16
2016-01-19T08:57:33.260Z,16.17
2016-01-19T08:58:33.278Z,16.12
2016-01-19T08:59:33.469Z,16.1
2016-01-19T09:00:33.268Z,16.15
2016-01-19T09:01:33.583Z,16.16
2016-01-19T09:02:33.555Z,16.1
2016-01-19T09:03:33.433Z,16.15
2016-01-19T09:04:33.669Z,16.15
2016-01-19T09:05:33.546Z,16.16
2016-01-19T09:06:33.752Z,16.15
2016-01-19T09:07:33.646Z,16.13
2016-01-19T09:08:33.695Z,16.13
2016-01-19T09:09:33.776Z,16.12
2016-01-19T09:10:33.810Z,16.15
2016-01-19T09:11:33.859Z,16.13
2016-01-19T09:12:34.004Z,16.13
2016-01-19T09:13:34.053Z,16.13
2016-01-19T09:14:34.196Z,16.15
2016-01-19T09:15:34.073Z,16.16
2016-01-19T09:16:34.123Z,16.26
2016-01-19T09:17:34.641Z,16.23
2016-01-19T09:18:34.237Z,16.28
2016-01-19T09:19:34.553Z,16.33
2016-01-19T09:20:34.431Z,16.26
2016-01-19T09:21:34.481Z,16.26
2016-01-19T09:22:34.452Z,16.35
2016-01-19T09:23:34.501Z,16.39
2016-01-19T09:24:34.550Z,16.35
2016-01-19T09:25:34.836Z,16.41
2016-01-19T09:26:34.681Z,16.38
2016-01-19T09:27:34.716Z,16.46
2016-01-19T09:28:34.874Z,16.47
2016-01-19T09:29:34.939Z,16.57
2016-01-19T09:30:34.879Z,16.58
2016-01-19T09:31:34.929Z,16.64
2016-01-19T09:32:35.135Z,16.66
2016-01-19T09:33:35.044Z,16.74
2016-01-19T09:34:35.094Z,16.71
2016-01-19T09:35:35.158Z,16.75
2016-01-19T09:36:35.193Z,16.69
2016-01-19T09:37:35.258Z,16.69
2016-01-19T09:38:35.308Z,16.75
2016-01-19T09:39:35.544Z,16.72
2016-01-19T09:40:35.422Z,16.75
2016-01-19T09:41:35.644Z,16.86
2016-01-19T09:42:35.522Z,16.76
